Latest Weather Observations for Shay Gap

IDW60801

Issued at 10:32 pm WST Wednesday 2 September 2015 (issued every 30 minutes, with the page automatically refreshed every 10 minutes)

About weather observations | Map of weather stations | Latest weather observations for WA | Other Formats
Station Details ID: 504045 Name: SHAY GAP Lat: -20.43 Lon: 120.13 Height: 173.83 m
Data from the previous 72 hours. | See also: Recent months for locations in Western Australia
Date/Time
WST
Temp
°C
App
Temp
°C
Dew
Point
Rel
Hum
%
Delta-T
°C
Wind Press
QNH
hPa
Press
MSL
hPa
Rain
since 9 am
mm
Dir
 
Spd
km/h
Gust
km/h
Spd
kts
Gust
kts
02/10:30pm 19.2 15.3 3.4 35 7.5 SSE 13 13 7 7 1018.2 1017.3 0.0
02/10:00pm 19.6 16.7 4.5 37 7.3 SSW 9 11 5 6 1018.1 1017.2 0.0
02/09:30pm 19.7 16.8 4.6 37 7.4 SW 9 9 5 5 1018.0 1017.1 0.0
02/09:00pm 19.2 15.8 4.2 37 7.2 WSW 11 11 6 6 1017.8 1016.9 0.0
02/08:30pm 21.0 18.1 4.6 34 8.1 WNW 9 11 5 6 1017.5 1016.6 0.0
02/08:00pm 22.1 19.7 4.2 31 8.8 NNW 6 7 3 4 1017.2 1016.3 0.0
02/07:30pm 23.4 19.6 3.9 28 9.6 NNW 13 17 7 9 1016.9 1016.0 0.0
02/07:00pm 25.4 21.6 4.0 25 10.7 NNW 13 17 7 9 1016.5 1015.7 0.0
02/06:30pm 24.0 19.6 0.4 21 10.9 SE 13 15 7 8 1016.0 1015.1 0.0
02/06:00pm 25.8 21.8 0.5 19 11.9 ESE 11 13 6 7 1015.6 1014.7 0.0
02/05:30pm 28.7 24.2 -0.5 15 13.8 E 13 19 7 10 1015.3 1014.4 0.0
02/05:00pm 29.3 24.1 0.0 15 14.0 E 17 24 9 13 1015.1 1014.2 0.0
02/04:30pm 29.5 24.7 0.2 15 14.1 ESE 15 22 8 12 1015.0 1014.1 0.0
02/04:00pm 29.4 23.8 0.1 15 14.1 SE 19 28 10 15 1015.0 1014.1 0.0
02/03:30pm 29.8 24.1 -0.5 14 14.4 ESE 19 28 10 15 1015.2 1014.3 0.0
02/03:00pm 29.6 23.8 0.2 15 14.1 E 20 33 11 18 1015.1 1014.2 0.0
02/02:30pm 29.8 24.5 -0.5 14 14.4 ESE 17 28 9 15 1015.4 1014.5 0.0
02/02:00pm 29.3 23.5 0.0 15 14.0 ESE 20 30 11 16 1015.5 1014.6 0.0
02/01:30pm 28.7 22.5 -0.5 15 13.8 ESE 22 35 12 19 1016.0 1015.1 0.0
02/01:00pm 27.5 20.9 -0.5 16 13.1 ESE 24 33 13 18 1016.4 1015.6 0.0
02/12:30pm 27.3 19.9 -0.7 16 13.1 E 28 41 15 22 1016.5 1015.7 0.0
02/12:00pm 26.8 19.0 -1.1 16 12.8 ESE 30 39 16 21 1017.1 1016.2 0.0
02/11:30am 25.6 17.6 -2.1 16 12.4 SE 30 41 16 22 1017.5 1016.6 0.0
02/11:00am 25.2 17.4 -0.8 18 11.9 ESE 30 41 16 22 1017.8 1016.9 0.0
02/10:30am 24.7 16.4 -0.4 19 11.5 SE 33 44 18 24 1018.1 1017.2 0.0
02/10:00am 23.6 14.1 -0.6 20 11.0 SE 39 50 21 27 1018.2 1017.3 0.0
02/09:30am 22.1 12.5 -1.2 21 10.3 ESE 39 50 21 27 1018.2 1017.3 0.0
02/09:00am 21.2 11.3 -0.7 23 9.7 SE 41 52 22 28 1018.1 1017.2 0.0
02/08:30am 20.3 10.5 -0.3 25 9.1 SE 41 50 22 27 1018.1 1017.2 0.0
02/08:00am 19.4 9.2 -0.1 27 8.6 SE 43 57 23 31 1017.7 1016.8 0.0
02/07:44am 19.1 9.7 -0.3 27 8.5 SE 39 57 21 31 1017.4 1016.5 0.0
02/07:30am 18.9 9.5 0.0 28 8.3 SE 39 54 21 29 1017.4 1016.5 0.0
02/07:00am 18.5 10.3 0.2 29 8.1 SE 33 44 18 24 1017.1 1016.2 0.0
02/06:30am 17.8 11.0 0.5 31 7.6 SE 26 35 14 19 1016.8 1015.9 0.0
02/06:00am 17.8 11.3 2.9 37 6.9 SE 26 39 14 21 1016.0 1015.1 0.0
02/05:30am 17.1 12.1 4.8 44 5.9 SE 20 24 11 13 1015.7 1014.8 0.0
02/05:00am 16.8 12.8 5.1 46 5.6 SE 15 19 8 10 1015.3 1014.4 0.0
02/04:30am 15.8 12.6 7.0 56 4.4 SSE 13 15 7 8 1015.2 1014.3 0.0
02/04:00am 16.4 13.4 9.3 63 3.7 SSE 15 17 8 9 1015.0 1014.1 0.0
02/03:30am 15.9 13.7 10.7 71 2.8 S 13 15 7 8 1015.0 1014.1 0.0
02/03:00am 16.4 14.1 10.3 67 3.2 S 13 15 7 8 1015.2 1014.3 0.0
02/02:30am 17.5 15.7 10.9 65 3.6 S 11 13 6 7 1015.4 1014.5 0.0
02/02:00am 16.8 14.5 10.6 67 3.3 WSW 13 17 7 9 1015.3 1014.4 0.0
02/01:30am 18.2 17.0 11.7 66 3.6 WSW 9 13 5 7 1015.4 1014.5 0.0
02/01:00am 18.8 17.4 12.1 65 3.7 SSE 11 15 6 8 1015.6 1014.7 0.0
02/12:30am 18.2 16.3 11.7 66 3.6 SW 13 17 7 9 1015.8 1014.9 0.0
02/12:00am 17.3 16.3 12.4 73 2.7 W 9 15 5 8 1015.8 1014.9 0.0
 
Date/Time
WST
Temp
°C
App
Temp
°C
Dew
Point
Rel
Hum
%
Delta-T
°C
Wind Press
QNH
hPa
Press
MSL
hPa
Rain
since 9 am
mm
Dir
 
Spd
km/h
Gust
km/h
Spd
kts
Gust
kts
01/11:30pm 17.2 17.2 12.3 73 2.7 N 4 7 2 4 1016.1 1015.2 0.0
01/11:00pm 18.3 17.8 12.7 70 3.2 NW 7 9 4 5 1016.1 1015.2 0.0
01/10:30pm 19.2 19.0 13.6 70 3.2 NNE 7 9 4 5 1015.9 1015.0 0.0
01/10:00pm 19.7 19.6 13.4 67 3.6 NNW 6 9 3 5 1015.7 1014.8 0.0
01/09:30pm 20.0 19.1 13.7 67 3.6 WNW 11 15 6 8 1015.7 1014.8 0.0
01/09:00pm 20.6 19.4 14.0 66 3.8 WNW 13 15 7 8 1015.5 1014.6 0.0
01/08:30pm 21.3 19.6 13.7 62 4.4 NW 15 19 8 10 1015.4 1014.5 0.0
01/08:00pm 21.5 21.1 14.2 63 4.3 NNW 9 13 5 7 1015.2 1014.3 0.0
01/07:30pm 22.4 21.1 13.7 58 5.1 NW 13 19 7 10 1014.8 1013.9 0.0
01/07:00pm 23.4 21.6 14.4 57 5.3 NW 17 24 9 13 1014.3 1013.4 0.0
01/06:30pm 25.1 21.9 12.0 44 7.5 NW 20 28 11 15 1013.8 1012.9 0.0
01/06:00pm 27.3 24.3 1.7 19 12.5 SW 7 9 4 5 1013.2 1012.3 0.0
01/05:30pm 29.3 26.3 0.9 16 13.8 S 6 9 3 5 1013.0 1012.1 0.0
01/05:00pm 30.2 27.1 1.6 16 14.2 S 7 15 4 8 1012.8 1011.9 0.0
01/04:30pm 30.7 26.4 1.1 15 14.6 SSW 13 20 7 11 1012.6 1011.7 0.0
01/04:00pm 30.5 26.6 1.0 15 14.5 SSE 11 15 6 8 1012.5 1011.6 0.0
01/03:30pm 30.1 26.6 1.5 16 14.1 ESE 9 17 5 9 1012.5 1011.6 0.0
01/03:00pm 30.9 26.8 2.2 16 14.4 WSW 13 20 7 11 1012.5 1011.6 0.0
01/02:30pm 30.5 27.1 1.9 16 14.3 SW 9 19 5 10 1012.7 1011.8 0.0
01/02:00pm 30.0 25.1 2.3 17 13.9 SW 17 26 9 14 1013.0 1012.1 0.0
01/01:30pm 29.8 26.1 2.1 17 13.8 ESE 11 20 6 11 1013.3 1012.4 0.0
01/01:00pm 29.8 26.6 2.9 18 13.6 WSW 9 19 5 10 1013.7 1012.8 0.0
01/12:30pm 29.4 24.6 2.6 18 13.4 SSE 17 30 9 16 1014.1 1013.2 0.0
01/12:00pm 29.9 24.0 3.8 19 13.4 SSE 24 32 13 17 1014.4 1013.5 0.0
01/11:30am 28.4 22.4 3.3 20 12.7 SSE 24 35 13 19 1014.9 1014.0 0.0
01/11:00am 27.9 20.9 4.2 22 12.1 SE 30 37 16 20 1015.1 1014.2 0.0
01/10:30am 27.5 20.6 4.5 23 11.8 SSE 30 41 16 22 1015.7 1014.8 0.0
01/10:00am 26.5 19.5 4.3 24 11.2 SSE 30 44 16 24 1015.7 1014.8 0.0
01/09:30am 25.4 17.9 4.5 26 10.6 SSE 33 43 18 23 1015.9 1015.0 0.0
01/09:00am 24.9 17.6 4.6 27 10.2 SSE 32 41 17 22 1015.8 1014.9 0.0
01/08:30am 23.8 16.3 4.7 29 9.6 SSE 33 46 18 25 1015.7 1014.8 0.0
01/08:00am 22.8 16.0 5.3 32 8.8 SSE 30 41 16 22 1015.6 1014.7 0.0
01/07:30am 21.4 16.0 6.5 38 7.6 S 24 32 13 17 1015.5 1014.9 0.0
01/07:00am 20.5 15.3 7.2 42 6.8 S 24 30 13 16 1015.0 1014.4 0.0
01/06:30am 17.2 14.5 8.9 58 4.3 SW 13 15 7 8 1014.8 1014.2 0.0
01/06:00am 16.0 14.0 8.7 62 3.8 SSW 9 13 5 7 1014.4 1013.8 0.0
01/05:30am 16.3 14.5 9.3 63 3.7 SW 9 13 5 7 1014.2 1013.6 0.0
01/05:00am 16.6 14.5 9.8 64 3.6 WSW 11 13 6 7 1013.8 1013.2 0.0
01/04:30am 15.7 14.5 10.2 70 2.9 WNW 7 9 4 5 1013.7 1013.1 0.0
01/04:00am 15.6 14.1 9.3 66 3.3 NW 7 9 4 5 1013.8 1013.2 0.0
01/03:30am 17.7 15.6 9.8 60 4.2 W 11 13 6 7 1013.7 1013.1 0.0
01/03:00am 18.6 17.0 10.2 58 4.5 WSW 9 13 5 7 1013.8 1013.2 0.0
01/02:30am 18.2 16.6 10.3 60 4.3 NE 9 11 5 6 1014.0 1013.4 0.0
01/02:00am 19.5 16.2 10.8 57 4.8 WSW 19 24 10 13 1013.9 1013.3 0.0
01/01:30am 19.9 16.3 10.6 55 5.1 W 20 28 11 15 1014.0 1013.4 0.0
01/01:00am 19.9 16.4 10.3 54 5.2 W 19 24 10 13 1014.3 1013.7 0.0
01/12:30am 20.0 16.5 10.1 53 5.4 W 19 22 10 12 1014.6 1014.0 0.0
01/12:00am 20.0 16.4 9.9 52 5.5 W 19 22 10 12 1014.9 1014.3 0.0
 
Date/Time
WST
Temp
°C
App
Temp
°C
Dew
Point
Rel
Hum
%
Delta-T
°C
Wind Press
QNH
hPa
Press
MSL
hPa
Rain
since 9 am
mm
Dir
 
Spd
km/h
Gust
km/h
Spd
kts
Gust
kts
31/11:30pm 20.4 16.7 9.6 50 5.8 W 19 22 10 12 1015.1 1014.5 0.0
31/11:00pm 20.8 16.9 9.4 48 6.1 W 20 28 11 15 1015.1 1014.5 0.0
31/10:30pm 21.5 17.4 8.7 44 6.8 W 20 26 11 14 1015.2 1014.6 0.0
31/10:00pm 22.0 17.7 7.8 40 7.5 W 20 26 11 14 1015.2 1014.6 0.0
31/09:30pm 22.5 17.6 6.7 36 8.2 WNW 22 26 12 14 1015.3 1014.7 0.0
31/09:00pm 23.2 17.7 6.0 33 8.8 WNW 24 32 13 17 1015.3 1014.7 0.0
31/08:30pm 22.8 18.5 7.8 38 7.9 WNW 20 26 11 14 1015.1 1014.5 0.0
31/08:00pm 23.1 18.9 9.8 43 7.3 WNW 22 28 12 15 1014.9 1014.3 0.0
31/07:30pm 22.7 19.7 10.8 47 6.6 NW 17 20 9 11 1014.5 1013.9 0.0
31/07:00pm 23.6 20.6 10.6 44 7.2 NW 17 22 9 12 1014.1 1013.5 0.0
31/06:30pm 24.8 20.9 9.5 38 8.4 NW 20 28 11 15 1013.7 1013.1 0.0
31/06:00pm 25.9 20.9 8.0 32 9.7 NW 24 32 13 17 1013.5 1012.9 0.0
31/05:30pm 27.3 21.8 9.2 32 10.0 NW 28 35 15 19 1013.1 1012.5 0.0
31/05:00pm 29.6 27.2 8.6 27 11.7 W 11 20 6 11 1012.7 1012.1 0.0
31/04:30pm 31.3 26.3 1.6 15 14.8 W 17 24 9 13 1012.4 1011.8 0.0
31/04:00pm 31.6 26.3 1.8 15 15.0 SW 19 33 10 18 1012.3 1011.7 0.0
31/03:30pm 31.7 28.3 1.9 15 15.0 SSE 9 15 5 8 1012.4 1011.8 0.0
31/03:00pm 31.4 26.6 2.6 16 14.6 SW 17 26 9 14 1012.5 1011.9 0.0
31/02:30pm 31.5 27.5 2.7 16 14.7 WSW 13 20 7 11 1012.8 1012.2 0.0
31/02:00pm 30.5 27.1 1.9 16 14.3 SE 9 19 5 10 1013.0 1012.4 0.0
31/01:30pm 31.0 26.7 3.1 17 14.2 S 15 24 8 13 1013.4 1012.8 0.0
31/01:00pm 30.9 25.8 3.0 17 14.2 SW 19 26 10 14 1013.7 1013.1 0.0
31/12:30pm 30.2 25.9 3.3 18 13.7 S 15 24 8 13 1014.1 1013.5 0.0
31/12:00pm 29.5 25.1 4.9 21 12.8 ESE 17 24 9 13 1014.5 1013.9 0.0
31/11:30am 28.9 24.4 4.4 21 12.6 SSE 17 28 9 15 1014.9 1014.3 0.0
31/11:00am 28.2 23.2 4.5 22 12.2 SE 20 30 11 16 1015.3 1014.7 0.0
31/10:30am 27.4 22.5 5.1 24 11.5 SE 20 32 11 17 1015.7 1015.1 0.0
31/10:00am 26.9 22.0 5.2 25 11.2 SE 20 28 11 15 1016.0 1015.4 0.0
31/09:30am 25.7 20.7 6.3 29 10.1 SSE 22 32 12 17 1016.0 1015.4 0.0
31/09:00am 24.4 20.1 7.1 33 9.1 SSE 19 26 10 14 1015.8 1015.2 0.0
31/08:30am 22.6 18.7 7.2 37 8.0 SSE 17 26 9 14 1015.7 1015.1 0.0
31/08:00am 21.8 18.9 9.7 46 6.6 SSW 15 17 8 9 1015.6 1015.0 0.0
31/07:30am 18.7 19.3 13.1 70 3.2 W 2 7 1 4 1015.5 1014.9 0.0
31/07:00am 16.7 17.6 13.0 79 2.1 CALM 0 0 0 0 1015.3 1014.7 0.0
31/06:30am 14.5 14.0 12.5 88 1.1 W 7 7 4 4 1014.9 1014.3 0.0
31/06:00am 15.0 15.1 12.7 86 1.3 W 4 9 2 5 1014.7 1014.1 0.0
31/05:30am 17.0 16.5 12.7 76 2.4 WSW 7 9 4 5 1014.5 1013.9 0.0
31/05:00am 16.0 15.8 12.9 82 1.7 WSW 6 9 3 5 1014.2 1013.6 0.0
31/04:30am 16.7 15.3 13.4 81 1.9 WSW 13 17 7 9 1014.1 1013.5 0.0
31/04:00am 15.4 15.1 13.4 88 1.1 NNW 7 9 4 5 1014.2 1013.6 0.0
31/03:30am 16.2 15.7 13.7 85 1.4 W 9 11 5 6 1014.4 1013.8 0.0
31/03:00am 16.5 15.0 14.2 86 1.3 WSW 15 17 8 9 1014.5 1013.9 0.0
31/02:30am 16.1 16.1 13.6 85 1.4 NNW 6 7 3 4 1015.0 1014.4 0.0
31/02:00am 16.7 15.9 14.0 84 1.5 NNW 11 13 6 7 1015.2 1014.6 0.0
31/01:30am 17.1 16.0 14.4 84 1.6 W 13 15 7 8 1015.4 1014.8 0.0
31/01:00am 17.8 16.9 14.9 83 1.7 WNW 13 15 7 8 1015.6 1015.0 0.0
31/12:30am 16.6 15.5 14.2 86 1.4 WNW 13 15 7 8 1015.9 1015.3 0.0
31/12:00am 16.8 16.8 14.3 85 1.4 N 7 9 4 5 1016.3 1015.7 0.0
 
Date/Time
WST
Temp
°C
App
Temp
°C
Dew
Point
Rel
Hum
%
Delta-T
°C
Wind Press
QNH
hPa
Press
MSL
hPa
Rain
since 9 am
mm
Dir
 
Spd
km/h
Gust
km/h
Spd
kts
Gust
kts
30/11:30pm 17.3 16.6 14.2 82 1.8 NNW 11 15 6 8 1016.5 1015.9 0.0
30/11:00pm 17.4 16.8 14.5 83 1.7 NNW 11 13 6 7 1016.6 1016.0 0.0

Other Formats:

Comma delimited format used in spreadsheet applications
http://www.bom.gov.au/fwo/IDW60801/IDW60801.99311.axf

JavaScript Object Notation format (JSON) in row-major order
http://www.bom.gov.au/fwo/IDW60801/IDW60801.99311.json